Time,TemperatureF,DewpointF,PressureIn,WindDirection,WindDirectionDegrees,WindSpeedMPH,WindSpeedGustMPH,Humidity,HourlyPrecipIn,Conditions,Clouds,dailyrainin,SoftwareType,DateUTC
2013-04-01 00:01:00,53.0,32.0,-100.00,North,356,4.0,6.0,44,0.00,,,-99.99,,2013-04-01 06:01:00,
2013-04-01 00:12:00,52.0,32.0,-100.00,NNW,337,4.0,7.0,47,0.00,,,-99.99,,2013-04-01 06:12:00,
2013-04-01 00:22:00,52.0,32.0,-100.00,NW,322,2.0,5.0,46,0.00,,,-99.99,,2013-04-01 06:22:00,
2013-04-01 00:32:00,52.0,32.0,-100.00,NW,322,2.0,5.0,46,0.00,,,-99.99,,2013-04-01 06:32:00,
2013-04-01 00:42:00,51.0,33.0,-100.00,WNW,292,4.0,6.0,48,0.00,,,-99.99,,2013-04-01 06:42:00,
2013-04-01 00:52:00,50.0,32.0,-100.00,NW,326,2.0,4.0,51,0.00,,,-99.99,,2013-04-01 06:52:00,
2013-04-01 01:02:00,50.0,32.0,-100.00,NW,326,2.0,4.0,51,0.00,,,-99.99,,2013-04-01 07:02:00,
2013-04-01 01:12:00,51.0,33.0,-100.00,North,359,5.0,9.0,50,0.00,,,-99.99,,2013-04-01 07:12:00,
2013-04-01 01:22:00,49.0,33.0,-100.00,North,11,5.0,7.0,52,0.00,,,-99.99,,2013-04-01 07:22:00,
2013-04-01 01:32:00,49.0,33.0,-100.00,North,11,5.0,7.0,52,0.00,,,-99.99,,2013-04-01 07:32:00,
2013-04-01 01:42:00,48.0,32.0,-100.00,North,356,5.0,9.0,54,0.00,,,-99.99,,2013-04-01 07:42:00,
2013-04-01 01:52:00,45.0,32.0,-100.00,WNW,292,2.0,4.0,60,0.00,,,-99.99,,2013-04-01 07:52:00,
2013-04-01 02:02:00,45.0,32.0,-100.00,WNW,292,2.0,4.0,60,0.00,,,-99.99,,2013-04-01 08:02:00,
2013-04-01 02:12:00,45.0,32.0,-100.00,SSE,160,3.0,9.0,61,0.00,,,-99.99,,2013-04-01 08:12:00,
2013-04-01 02:22:00,46.0,32.0,-100.00,North,356,1.0,2.0,58,0.00,,,-99.99,,2013-04-01 08:22:00,
2013-04-01 02:32:00,46.0,32.0,-100.00,North,356,1.0,2.0,58,0.00,,,-99.99,,2013-04-01 08:32:00,
2013-04-01 02:43:00,45.0,32.0,-100.00,WNW,291,1.0,2.0,59,0.00,,,-99.99,,2013-04-01 08:43:00,
2013-04-01 02:53:00,43.0,32.0,-100.00,South,188,1.0,2.0,64,0.00,,,-99.99,,2013-04-01 08:53:00,
2013-04-01 03:02:00,43.0,32.0,-100.00,South,188,1.0,2.0,64,0.00,,,-99.99,,2013-04-01 09:02:00,
2013-04-01 03:12:00,42.0,32.0,-100.00,SSE,155,3.0,4.0,66,0.00,,,-99.99,,2013-04-01 09:12:00,
2013-04-01 03:22:00,42.0,31.0,-100.00,SW,215,0.0,0.0,65,0.00,,,-99.99,,2013-04-01 09:22:00,
2013-04-01 03:32:00,42.0,31.0,-100.00,SW,215,0.0,0.0,65,0.00,,,-99.99,,2013-04-01 09:32:00,
2013-04-01 03:42:00,42.0,31.0,-100.00,SW,215,0.0,0.0,65,0.00,,,-99.99,,2013-04-01 09:42:00,
2013-04-01 03:53:00,41.0,30.0,-100.00,SSE,168,1.0,2.0,64,0.00,,,-99.99,,2013-04-01 09:53:00,
2013-04-01 04:02:00,41.0,30.0,-100.00,SSE,168,1.0,2.0,64,0.00,,,-99.99,,2013-04-01 10:02:00,
2013-04-01 04:12:00,42.0,30.0,-100.00,SW,216,0.0,1.0,63,0.00,,,-99.99,,2013-04-01 10:12:00,
2013-04-01 04:22:00,41.0,30.0,-100.00,WSW,240,1.0,3.0,65,0.00,,,-99.99,,2013-04-01 10:22:00,
2013-04-01 04:33:00,41.0,30.0,-100.00,WSW,240,1.0,3.0,65,0.00,,,-99.99,,2013-04-01 10:33:00,
2013-04-01 04:42:00,40.0,30.0,-100.00,SSE,161,2.0,3.0,66,0.00,,,-99.99,,2013-04-01 10:42:00,
2013-04-01 04:53:00,41.0,30.0,-100.00,South,178,1.0,2.0,64,0.00,,,-99.99,,2013-04-01 10:53:00,
2013-04-01 05:02:00,41.0,30.0,-100.00,South,178,1.0,2.0,64,0.00,,,-99.99,,2013-04-01 11:02:00,
2013-04-01 05:12:00,40.0,30.0,-100.00,SW,216,0.0,1.0,66,0.00,,,-99.99,,2013-04-01 11:12:00,
2013-04-01 05:22:00,40.0,30.0,-100.00,NW,315,2.0,5.0,67,0.00,,,-99.99,,2013-04-01 11:22:00,
2013-04-01 05:32:00,40.0,30.0,-100.00,NW,315,2.0,5.0,67,0.00,,,-99.99,,2013-04-01 11:32:00,
2013-04-01 05:42:00,41.0,30.0,-100.00,NNW,328,2.0,4.0,65,0.00,,,-99.99,,2013-04-01 11:42:00,
2013-04-01 05:53:00,40.0,30.0,-100.00,NNW,337,3.0,6.0,66,0.00,,,-99.99,,2013-04-01 11:53:00,
2013-04-01 06:02:00,40.0,30.0,-100.00,NNW,337,3.0,6.0,66,0.00,,,-99.99,,2013-04-01 12:02:00,
2013-04-01 06:12:00,41.0,30.0,-100.00,NNW,340,3.0,8.0,65,0.00,,,-99.99,,2013-04-01 12:12:00,
2013-04-01 06:22:00,40.0,30.0,-100.00,NNW,337,2.0,4.0,67,0.00,,,-99.99,,2013-04-01 12:22:00,
2013-04-01 06:32:00,40.0,30.0,-100.00,NNW,337,2.0,4.0,67,0.00,,,-99.99,,2013-04-01 12:32:00,
2013-04-01 06:42:00,40.0,30.0,-100.00,North,350,5.0,12.0,67,0.00,,,-99.99,,2013-04-01 12:42:00,
2013-04-01 06:53:00,39.0,30.0,-100.00,WNW,294,2.0,5.0,70,0.00,,,-99.99,,2013-04-01 12:53:00,
2013-04-01 07:02:00,39.0,30.0,-100.00,WNW,294,2.0,5.0,70,0.00,,,-99.99,,2013-04-01 13:02:00,
2013-04-01 07:12:00,40.0,30.0,-100.00,West,263,1.0,3.0,67,0.00,,,-99.99,,2013-04-01 13:12:00,
2013-04-01 07:22:00,40.0,30.0,-100.00,WNW,294,1.0,2.0,67,0.00,,,-99.99,,2013-04-01 13:22:00,
2013-04-01 07:32:00,40.0,30.0,-100.00,WNW,294,1.0,2.0,67,0.00,,,-99.99,,2013-04-01 13:32:00,
2013-04-01 07:42:00,39.0,30.0,-100.00,South,186,2.0,4.0,70,0.00,,,-99.99,,2013-04-01 13:42:00,
2013-04-01 07:52:00,39.0,30.0,-100.00,SSE,162,1.0,3.0,71,0.00,,,-99.99,,2013-04-01 13:52:00,
2013-04-01 08:02:00,39.0,30.0,-100.00,SSE,162,1.0,3.0,71,0.00,,,-99.99,,2013-04-01 14:02:00,
2013-04-01 08:12:00,38.0,30.0,-100.00,SSE,155,2.0,3.0,73,0.00,,,-99.99,,2013-04-01 14:12:00,
2013-04-01 08:22:00,38.0,30.0,-100.00,South,174,1.0,2.0,72,0.00,,,-99.99,,2013-04-01 14:22:00,
2013-04-01 08:32:00,38.0,30.0,-100.00,South,174,1.0,2.0,72,0.00,,,-99.99,,2013-04-01 14:32:00,
2013-04-01 08:42:00,38.0,30.0,-100.00,SSW,205,3.0,6.0,72,0.00,,,-99.99,,2013-04-01 14:42:00,
2013-04-01 08:52:00,39.0,31.0,-100.00,SSW,200,1.0,4.0,72,0.00,,,-99.99,,2013-04-01 14:52:00,
2013-04-01 09:02:00,39.0,31.0,-100.00,SSW,200,1.0,4.0,72,0.00,,,-99.99,,2013-04-01 15:02:00,
2013-04-01 09:12:00,39.0,31.0,-100.00,SSW,200,1.0,4.0,72,0.00,,,-99.99,,2013-04-01 15:12:00,
2013-04-01 09:22:00,40.0,31.0,-100.00,SE,141,2.0,4.0,70,0.00,,,-99.99,,2013-04-01 15:22:00,
2013-04-01 09:33:00,40.0,31.0,-100.00,SE,141,2.0,4.0,70,0.00,,,-99.99,,2013-04-01 15:33:00,
2013-04-01 09:43:00,43.0,31.0,-100.00,North,3,2.0,4.0,61,0.00,,,-99.99,,2013-04-01 15:43:00,
2013-04-01 09:53:00,44.0,31.0,-100.00,WNW,298,1.0,2.0,59,0.00,,,-99.99,,2013-04-01 15:53:00,
2013-04-01 10:02:00,44.0,31.0,-100.00,WNW,298,1.0,2.0,59,0.00,,,-99.99,,2013-04-01 16:02:00,
2013-04-01 10:12:00,47.0,31.0,-100.00,NNW,337,2.0,3.0,54,0.00,,,-99.99,,2013-04-01 16:12:00,
2013-04-01 10:23:00,49.0,32.0,-100.00,NNW,346,2.0,3.0,52,0.00,,,-99.99,,2013-04-01 16:23:00,
2013-04-01 10:32:00,49.0,32.0,-100.00,NNW,346,2.0,3.0,52,0.00,,,-99.99,,2013-04-01 16:32:00,
2013-04-01 10:42:00,51.0,32.0,-100.00,NE,51,1.0,3.0,49,0.00,,,-99.99,,2013-04-01 16:42:00,
2013-04-01 10:53:00,53.0,33.0,-100.00,NW,318,1.0,2.0,46,0.00,,,-99.99,,2013-04-01 16:53:00,
2013-04-01 11:12:00,56.0,35.0,-100.00,North,3,1.0,2.0,45,0.00,,,-99.99,,2013-04-01 17:12:00,
2013-04-01 11:22:00,56.0,37.0,-100.00,East,83,1.0,2.0,47,0.00,,,-99.99,,2013-04-01 17:22:00,
2013-04-01 11:31:00,56.0,37.0,-100.00,East,83,1.0,2.0,47,0.00,,,-99.99,,2013-04-01 17:31:00,
2013-04-01 11:41:00,59.0,39.0,-100.00,SSE,157,3.0,5.0,49,0.00,,,-99.99,,2013-04-01 17:41:00,
2013-04-01 11:52:00,58.0,42.0,-100.00,SE,131,2.0,4.0,54,0.00,,,-99.99,,2013-04-01 17:52:00,
2013-04-01 12:02:00,58.0,42.0,-100.00,SE,131,2.0,4.0,54,0.00,,,-99.99,,2013-04-01 18:02:00,
2013-04-01 12:11:00,59.0,42.0,-100.00,SSE,161,3.0,4.0,53,0.00,,,-99.99,,2013-04-01 18:11:00,
2013-04-01 12:22:00,60.0,42.0,-100.00,East,88,2.0,7.0,51,0.00,,,-99.99,,2013-04-01 18:22:00,
2013-04-01 12:32:00,60.0,42.0,-100.00,East,88,2.0,7.0,51,0.00,,,-99.99,,2013-04-01 18:32:00,
2013-04-01 12:42:00,60.0,42.0,-100.00,SSE,168,4.0,7.0,51,0.00,,,-99.99,,2013-04-01 18:42:00,
2013-04-01 12:53:00,61.0,42.0,-100.00,South,188,2.0,4.0,49,0.00,,,-99.99,,2013-04-01 18:53:00,
2013-04-01 13:02:00,62.0,41.0,-100.00,SSE,158,4.0,7.0,47,0.00,,,-99.99,,2013-04-01 19:02:00,
2013-04-01 13:12:00,62.0,41.0,-100.00,SSE,158,4.0,7.0,47,0.00,,,-99.99,,2013-04-01 19:12:00,
2013-04-01 13:22:00,62.0,42.0,-100.00,NNW,339,1.0,4.0,48,0.00,,,-99.99,,2013-04-01 19:22:00,
2013-04-01 13:32:00,62.0,42.0,-100.00,NNW,339,1.0,4.0,48,0.00,,,-99.99,,2013-04-01 19:32:00,
2013-04-01 13:42:00,62.0,42.0,-100.00,SSE,162,4.0,7.0,47,0.00,,,-99.99,,2013-04-01 19:42:00,
2013-04-01 13:53:00,63.0,42.0,-100.00,ESE,120,2.0,4.0,45,0.00,,,-99.99,,2013-04-01 19:53:00,
2013-04-01 14:02:00,63.0,42.0,-100.00,ESE,120,2.0,4.0,45,0.00,,,-99.99,,2013-04-01 20:02:00,
2013-04-01 14:12:00,63.0,42.0,-100.00,South,171,3.0,7.0,46,0.00,,,-99.99,,2013-04-01 20:12:00,
2013-04-01 14:22:00,63.0,42.0,-100.00,South,171,4.0,7.0,45,0.00,,,-99.99,,2013-04-01 20:22:00,
2013-04-01 14:32:00,63.0,42.0,-100.00,South,171,4.0,7.0,45,0.00,,,-99.99,,2013-04-01 20:32:00,
2013-04-01 14:42:00,62.0,39.0,-100.00,SE,144,4.0,8.0,42,0.00,,,-99.99,,2013-04-01 20:42:00,
2013-04-01 14:52:00,63.0,39.0,-100.00,SSE,150,7.0,9.0,41,0.00,,,-99.99,,2013-04-01 20:52:00,
2013-04-01 15:02:00,65.0,38.0,-100.00,South,184,2.0,6.0,36,0.00,,,-99.99,,2013-04-01 21:02:00,
2013-04-01 15:11:00,65.0,38.0,-100.00,South,184,2.0,6.0,36,0.00,,,-99.99,,2013-04-01 21:11:00,
2013-04-01 15:22:00,65.0,38.0,-100.00,South,191,2.0,4.0,36,0.00,,,-99.99,,2013-04-01 21:22:00,
2013-04-01 15:32:00,65.0,38.0,-100.00,South,191,2.0,4.0,36,0.00,,,-99.99,,2013-04-01 21:32:00,
2013-04-01 15:43:00,65.0,38.0,-100.00,South,172,2.0,5.0,36,0.00,,,-99.99,,2013-04-01 21:43:00,
2013-04-01 15:53:00,65.0,38.0,-100.00,South,175,2.0,5.0,37,0.00,,,-99.99,,2013-04-01 21:53:00,
2013-04-01 16:02:00,65.0,38.0,-100.00,South,175,2.0,5.0,37,0.00,,,-99.99,,2013-04-01 22:02:00,
2013-04-01 16:12:00,64.0,38.0,-100.00,WNW,295,2.0,3.0,38,0.00,,,-99.99,,2013-04-01 22:12:00,
2013-04-01 16:22:00,65.0,39.0,-100.00,West,275,2.0,3.0,38,0.00,,,-99.99,,2013-04-01 22:22:00,
2013-04-01 16:32:00,65.0,39.0,-100.00,West,275,2.0,3.0,38,0.00,,,-99.99,,2013-04-01 22:32:00,
2013-04-01 16:42:00,65.0,38.0,-100.00,East,95,1.0,2.0,36,0.00,,,-99.99,,2013-04-01 22:42:00,
2013-04-01 16:52:00,65.0,37.0,-100.00,ESE,107,1.0,3.0,35,0.00,,,-99.99,,2013-04-01 22:52:00,
2013-04-01 17:02:00,65.0,37.0,-100.00,ESE,107,1.0,3.0,35,0.00,,,-99.99,,2013-04-01 23:02:00,
2013-04-01 17:11:00,66.0,38.0,-100.00,South,171,3.0,6.0,35,0.00,,,-99.99,,2013-04-01 23:11:00,
2013-04-01 17:22:00,67.0,38.0,-100.00,South,172,2.0,4.0,35,0.00,,,-99.99,,2013-04-01 23:22:00,
2013-04-01 17:32:00,67.0,38.0,-100.00,South,172,2.0,4.0,35,0.00,,,-99.99,,2013-04-01 23:32:00,
2013-04-01 17:42:00,67.0,40.0,-100.00,WSW,240,1.0,3.0,37,0.00,,,-99.99,,2013-04-01 23:42:00,
2013-04-01 17:53:00,67.0,38.0,-100.00,SSE,155,5.0,7.0,35,0.00,,,-99.99,,2013-04-01 23:53:00,
2013-04-01 18:02:00,67.0,38.0,-100.00,SSE,155,5.0,7.0,35,0.00,,,-99.99,,2013-04-02 00:02:00,
2013-04-01 18:11:00,67.0,39.0,-100.00,South,172,4.0,6.0,37,0.00,,,-99.99,,2013-04-02 00:11:00,
2013-04-01 18:22:00,67.0,40.0,-100.00,South,174,2.0,6.0,38,0.00,,,-99.99,,2013-04-02 00:22:00,
2013-04-01 18:32:00,67.0,40.0,-100.00,South,174,2.0,6.0,38,0.00,,,-99.99,,2013-04-02 00:32:00,
2013-04-01 18:42:00,66.0,40.0,-100.00,SSE,162,3.0,5.0,37,0.00,,,-99.99,,2013-04-02 00:42:00,
2013-04-01 18:53:00,66.0,40.0,-100.00,South,181,2.0,4.0,38,0.00,,,-99.99,,2013-04-02 00:53:00,
2013-04-01 19:01:00,66.0,40.0,-100.00,South,181,2.0,4.0,38,0.00,,,-99.99,,2013-04-02 01:01:00,
2013-04-01 19:11:00,66.0,40.0,-100.00,SSE,151,0.0,1.0,38,0.00,,,-99.99,,2013-04-02 01:11:00,
2013-04-01 19:22:00,66.0,35.0,-100.00,WNW,284,4.0,6.0,32,0.00,,,-99.99,,2013-04-02 01:22:00,
2013-04-01 19:32:00,66.0,35.0,-100.00,WNW,284,4.0,6.0,32,0.00,,,-99.99,,2013-04-02 01:32:00,
2013-04-01 19:42:00,65.0,34.0,-100.00,West,280,2.0,5.0,31,0.00,,,-99.99,,2013-04-02 01:42:00,
2013-04-01 19:52:00,65.0,34.0,-100.00,NNW,343,4.0,7.0,31,0.00,,,-99.99,,2013-04-02 01:52:00,
2013-04-01 20:02:00,65.0,34.0,-100.00,NNW,343,4.0,7.0,31,0.00,,,-99.99,,2013-04-02 02:02:00,
2013-04-01 20:12:00,64.0,34.0,-100.00,WNW,298,5.0,8.0,32,0.00,,,-99.99,,2013-04-02 02:12:00,
2013-04-01 20:22:00,63.0,35.0,-100.00,NW,319,4.0,8.0,34,0.00,,,-99.99,,2013-04-02 02:22:00,
2013-04-01 20:32:00,63.0,35.0,-100.00,NW,319,4.0,8.0,34,0.00,,,-99.99,,2013-04-02 02:32:00,
2013-04-01 20:42:00,62.0,35.0,-100.00,WSW,247,1.0,4.0,36,0.00,,,-99.99,,2013-04-02 02:42:00,
2013-04-01 20:52:00,61.0,35.0,-100.00,West,277,2.0,3.0,38,0.00,,,-99.99,,2013-04-02 02:52:00,
2013-04-01 21:01:00,61.0,35.0,-100.00,West,277,2.0,3.0,38,0.00,,,-99.99,,2013-04-02 03:01:00,
2013-04-01 21:12:00,60.0,36.0,-100.00,West,263,1.0,3.0,39,0.00,,,-99.99,,2013-04-02 03:12:00,
2013-04-01 21:22:00,59.0,36.0,-100.00,East,85,3.0,6.0,42,0.00,,,-99.99,,2013-04-02 03:22:00,
2013-04-01 21:33:00,59.0,36.0,-100.00,East,85,3.0,6.0,42,0.00,,,-99.99,,2013-04-02 03:33:00,
2013-04-01 21:43:00,59.0,36.0,-100.00,North,11,3.0,6.0,42,0.00,,,-99.99,,2013-04-02 03:43:00,
2013-04-01 21:53:00,58.0,36.0,-100.00,NNE,31,3.0,5.0,45,0.00,,,-99.99,,2013-04-02 03:53:00,
2013-04-01 22:02:00,58.0,36.0,-100.00,NNE,31,3.0,5.0,45,0.00,,,-99.99,,2013-04-02 04:02:00,
2013-04-01 22:12:00,56.0,37.0,-100.00,North,360,2.0,5.0,48,0.00,,,-99.99,,2013-04-02 04:12:00,
2013-04-01 22:22:00,54.0,37.0,-100.00,North,349,2.0,5.0,51,0.00,,,-99.99,,2013-04-02 04:22:00,
2013-04-01 22:32:00,54.0,37.0,-100.00,North,349,2.0,5.0,51,0.00,,,-99.99,,2013-04-02 04:32:00,
2013-04-01 22:42:00,51.0,37.0,-100.00,West,268,0.0,1.0,60,0.00,,,-99.99,,2013-04-02 04:42:00,
2013-04-01 22:53:00,50.0,37.0,-100.00,WNW,295,2.0,4.0,62,0.00,,,-99.99,,2013-04-02 04:53:00,
2013-04-01 23:02:00,50.0,37.0,-100.00,WNW,295,2.0,4.0,62,0.00,,,-99.99,,2013-04-02 05:02:00,
2013-04-01 23:12:00,49.0,37.0,-100.00,WSW,254,0.0,1.0,64,0.00,,,-99.99,,2013-04-02 05:12:00,
2013-04-01 23:22:00,48.0,37.0,-100.00,NW,322,1.0,2.0,65,0.00,,,-99.99,,2013-04-02 05:22:00,
2013-04-01 23:32:00,48.0,37.0,-100.00,NW,322,1.0,2.0,65,0.00,,,-99.99,,2013-04-02 05:32:00,
2013-04-01 23:42:00,47.0,37.0,-100.00,NW,305,1.0,2.0,68,0.00,,,-99.99,,2013-04-02 05:42:00,
2013-04-01 23:52:00,46.0,37.0,-100.00,NE,48,0.0,2.0,70,0.00,,,-99.99,,2013-04-02 05:52:00,